sensor_id;sensor_type;location;lat;lon;timestamp;temperature;humidity
5689;DHT22;2869;50.432;8.680;2022-09-09T00:01:50;15.70;99.90
5689;DHT22;2869;50.432;8.680;2022-09-09T00:04:25;15.80;99.90
5689;DHT22;2869;50.432;8.680;2022-09-09T00:07:00;15.80;99.90
5689;DHT22;2869;50.432;8.680;2022-09-09T00:09:32;15.70;99.90
5689;DHT22;2869;50.432;8.680;2022-09-09T00:12:10;15.70;99.90
5689;DHT22;2869;50.432;8.680;2022-09-09T00:14:43;15.70;99.90
5689;DHT22;2869;50.432;8.680;2022-09-09T00:17:17;15.60;99.90
5689;DHT22;2869;50.432;8.680;2022-09-09T00:19:52;15.60;99.90
5689;DHT22;2869;50.432;8.680;2022-09-09T00:22:22;15.60;99.90
5689;DHT22;2869;50.432;8.680;2022-09-09T00:24:52;15.60;99.90
5689;DHT22;2869;50.432;8.680;2022-09-09T00:27:26;15.50;99.90
5689;DHT22;2869;50.432;8.680;2022-09-09T00:30:00;15.60;99.90
5689;DHT22;2869;50.432;8.680;2022-09-09T00:32:29;15.60;99.90
5689;DHT22;2869;50.432;8.680;2022-09-09T00:34:59;15.60;99.90
5689;DHT22;2869;50.432;8.680;2022-09-09T00:37:28;15.60;99.90
5689;DHT22;2869;50.432;8.680;2022-09-09T00:39:59;15.60;99.90
5689;DHT22;2869;50.432;8.680;2022-09-09T00:42:35;15.50;99.90
5689;DHT22;2869;50.432;8.680;2022-09-09T00:45:18;15.50;99.90
5689;DHT22;2869;50.432;8.680;2022-09-09T00:47:47;15.50;99.90
5689;DHT22;2869;50.432;8.680;2022-09-09T00:50:29;15.40;99.90
5689;DHT22;2869;50.432;8.680;2022-09-09T00:53:10;15.40;99.90
5689;DHT22;2869;50.432;8.680;2022-09-09T00:55:41;15.40;99.90
5689;DHT22;2869;50.432;8.680;2022-09-09T00:58:11;15.50;99.90
5689;DHT22;2869;50.432;8.680;2022-09-09T01:00:43;15.50;99.90
5689;DHT22;2869;50.432;8.680;2022-09-09T01:03:21;15.50;99.90
5689;DHT22;2869;50.432;8.680;2022-09-09T01:05:56;15.60;99.90
5689;DHT22;2869;50.432;8.680;2022-09-09T01:08:46;15.60;99.90
5689;DHT22;2869;50.432;8.680;2022-09-09T01:11:21;15.60;99.90
5689;DHT22;2869;50.432;8.680;2022-09-09T01:13:53;15.70;99.90
5689;DHT22;2869;50.432;8.680;2022-09-09T01:16:26;15.60;99.90
5689;DHT22;2869;50.432;8.680;2022-09-09T01:18:54;15.60;99.90
5689;DHT22;2869;50.432;8.680;2022-09-09T01:21:32;15.60;99.90
5689;DHT22;2869;50.432;8.680;2022-09-09T01:24:19;15.60;99.90
5689;DHT22;2869;50.432;8.680;2022-09-09T01:26:51;15.60;99.90
5689;DHT22;2869;50.432;8.680;2022-09-09T01:29:21;15.50;99.90
5689;DHT22;2869;50.432;8.680;2022-09-09T01:31:54;15.60;99.90
5689;DHT22;2869;50.432;8.680;2022-09-09T01:34:23;15.60;99.90
5689;DHT22;2869;50.432;8.680;2022-09-09T01:36:55;15.60;99.90
5689;DHT22;2869;50.432;8.680;2022-09-09T01:39:23;15.60;99.90
5689;DHT22;2869;50.432;8.680;2022-09-09T01:41:52;15.70;99.90
5689;DHT22;2869;50.432;8.680;2022-09-09T01:44:19;15.70;99.90
5689;DHT22;2869;50.432;8.680;2022-09-09T01:46:47;15.70;99.90
5689;DHT22;2869;50.432;8.680;2022-09-09T01:49:13;15.70;99.90
5689;DHT22;2869;50.432;8.680;2022-09-09T01:51:41;15.70;99.90
5689;DHT22;2869;50.432;8.680;2022-09-09T01:54:09;15.70;99.90
5689;DHT22;2869;50.432;8.680;2022-09-09T01:56:45;15.70;99.90
5689;DHT22;2869;50.432;8.680;2022-09-09T01:59:24;15.70;99.90
5689;DHT22;2869;50.432;8.680;2022-09-09T02:02:02;15.70;99.90
5689;DHT22;2869;50.432;8.680;2022-09-09T02:04:37;15.60;99.90
5689;DHT22;2869;50.432;8.680;2022-09-09T02:07:15;15.60;99.90
5689;DHT22;2869;50.432;8.680;2022-09-09T02:09:49;15.60;99.90
5689;DHT22;2869;50.432;8.680;2022-09-09T02:12:19;15.50;99.90
5689;DHT22;2869;50.432;8.680;2022-09-09T02:14:56;15.50;99.90
5689;DHT22;2869;50.432;8.680;2022-09-09T02:17:27;15.60;99.90
5689;DHT22;2869;50.432;8.680;2022-09-09T02:19:59;15.50;99.90
5689;DHT22;2869;50.432;8.680;2022-09-09T02:22:30;15.40;99.90
5689;DHT22;2869;50.432;8.680;2022-09-09T02:24:59;15.40;99.90
5689;DHT22;2869;50.432;8.680;2022-09-09T02:27:27;15.40;99.90
5689;DHT22;2869;50.432;8.680;2022-09-09T02:29:56;15.30;99.90
5689;DHT22;2869;50.432;8.680;2022-09-09T02:32:25;15.40;99.90
5689;DHT22;2869;50.432;8.680;2022-09-09T02:34:59;15.50;99.90
5689;DHT22;2869;50.432;8.680;2022-09-09T02:37:33;15.40;99.90
5689;DHT22;2869;50.432;8.680;2022-09-09T02:40:02;15.50;99.90
5689;DHT22;2869;50.432;8.680;2022-09-09T02:42:29;15.40;99.90
5689;DHT22;2869;50.432;8.680;2022-09-09T02:44:58;15.50;99.90
5689;DHT22;2869;50.432;8.680;2022-09-09T02:47:32;15.50;99.90
5689;DHT22;2869;50.432;8.680;2022-09-09T02:50:07;15.50;99.90
5689;DHT22;2869;50.432;8.680;2022-09-09T02:52:50;15.50;99.90
5689;DHT22;2869;50.432;8.680;2022-09-09T02:55:24;15.50;99.90
5689;DHT22;2869;50.432;8.680;2022-09-09T02:57:54;15.50;99.90
5689;DHT22;2869;50.432;8.680;2022-09-09T03:00:27;15.50;99.90
5689;DHT22;2869;50.432;8.680;2022-09-09T03:02:54;15.50;99.90
5689;DHT22;2869;50.432;8.680;2022-09-09T03:05:21;15.50;99.90
5689;DHT22;2869;50.432;8.680;2022-09-09T03:07:49;15.50;99.90
5689;DHT22;2869;50.432;8.680;2022-09-09T03:10:16;15.50;99.90
5689;DHT22;2869;50.432;8.680;2022-09-09T03:12:43;15.40;99.90
5689;DHT22;2869;50.432;8.680;2022-09-09T03:15:10;15.40;99.90
5689;DHT22;2869;50.432;8.680;2022-09-09T03:17:38;15.40;99.90
5689;DHT22;2869;50.432;8.680;2022-09-09T03:20:05;15.40;99.90
5689;DHT22;2869;50.432;8.680;2022-09-09T03:22:32;15.40;99.90
5689;DHT22;2869;50.432;8.680;2022-09-09T03:24:59;15.40;99.90
5689;DHT22;2869;50.432;8.680;2022-09-09T03:27:26;15.50;99.90
5689;DHT22;2869;50.432;8.680;2022-09-09T03:29:52;15.50;99.90
5689;DHT22;2869;50.432;8.680;2022-09-09T03:32:19;15.50;99.90
5689;DHT22;2869;50.432;8.680;2022-09-09T03:34:49;15.60;99.90
5689;DHT22;2869;50.432;8.680;2022-09-09T03:37:16;15.50;99.90
5689;DHT22;2869;50.432;8.680;2022-09-09T03:39:43;15.50;99.90
5689;DHT22;2869;50.432;8.680;2022-09-09T03:42:12;15.50;99.90
5689;DHT22;2869;50.432;8.680;2022-09-09T03:44:39;15.50;99.90
5689;DHT22;2869;50.432;8.680;2022-09-09T03:47:07;15.50;99.90
5689;DHT22;2869;50.432;8.680;2022-09-09T03:49:33;15.40;99.90
5689;DHT22;2869;50.432;8.680;2022-09-09T03:52:02;15.40;99.90
5689;DHT22;2869;50.432;8.680;2022-09-09T03:54:28;15.40;99.90
5689;DHT22;2869;50.432;8.680;2022-09-09T03:56:55;15.30;99.90
5689;DHT22;2869;50.432;8.680;2022-09-09T03:59:23;15.30;99.90
5689;DHT22;2869;50.432;8.680;2022-09-09T04:01:50;15.30;99.90
5689;DHT22;2869;50.432;8.680;2022-09-09T04:04:17;15.30;99.90
5689;DHT22;2869;50.432;8.680;2022-09-09T04:06:45;15.30;99.90
5689;DHT22;2869;50.432;8.680;2022-09-09T04:09:13;15.30;99.90
5689;DHT22;2869;50.432;8.680;2022-09-09T04:11:40;15.30;99.90
5689;DHT22;2869;50.432;8.680;2022-09-09T04:14:07;15.30;99.90
5689;DHT22;2869;50.432;8.680;2022-09-09T04:16:34;15.30;99.90
5689;DHT22;2869;50.432;8.680;2022-09-09T04:19:02;15.30;99.90
5689;DHT22;2869;50.432;8.680;2022-09-09T04:21:29;15.30;99.90
5689;DHT22;2869;50.432;8.680;2022-09-09T04:23:56;15.30;99.90
5689;DHT22;2869;50.432;8.680;2022-09-09T04:26:24;15.30;99.90
5689;DHT22;2869;50.432;8.680;2022-09-09T04:28:51;15.30;99.90
5689;DHT22;2869;50.432;8.680;2022-09-09T04:31:19;15.40;99.90
5689;DHT22;2869;50.432;8.680;2022-09-09T04:33:48;15.40;99.90
5689;DHT22;2869;50.432;8.680;2022-09-09T04:36:15;15.40;99.90
5689;DHT22;2869;50.432;8.680;2022-09-09T04:38:42;15.50;99.90
5689;DHT22;2869;50.432;8.680;2022-09-09T04:41:10;15.50;99.90
5689;DHT22;2869;50.432;8.680;2022-09-09T04:43:38;15.60;99.90
5689;DHT22;2869;50.432;8.680;2022-09-09T04:46:05;15.70;99.90
5689;DHT22;2869;50.432;8.680;2022-09-09T04:48:33;15.70;99.90
5689;DHT22;2869;50.432;8.680;2022-09-09T04:51:01;15.80;99.90
5689;DHT22;2869;50.432;8.680;2022-09-09T04:53:28;15.80;99.90
5689;DHT22;2869;50.432;8.680;2022-09-09T04:56:02;15.80;99.90
5689;DHT22;2869;50.432;8.680;2022-09-09T04:58:28;15.90;99.90
5689;DHT22;2869;50.432;8.680;2022-09-09T05:01:03;15.90;99.90
5689;DHT22;2869;50.432;8.680;2022-09-09T05:03:29;15.90;99.90
5689;DHT22;2869;50.432;8.680;2022-09-09T05:06:02;15.90;99.90
5689;DHT22;2869;50.432;8.680;2022-09-09T05:08:30;15.90;99.90
5689;DHT22;2869;50.432;8.680;2022-09-09T05:10:56;15.90;99.90
5689;DHT22;2869;50.432;8.680;2022-09-09T05:13:25;15.90;99.90
5689;DHT22;2869;50.432;8.680;2022-09-09T05:15:52;15.90;99.90
5689;DHT22;2869;50.432;8.680;2022-09-09T05:18:20;16.00;99.90
5689;DHT22;2869;50.432;8.680;2022-09-09T05:20:47;16.00;99.90
5689;DHT22;2869;50.432;8.680;2022-09-09T05:23:14;16.00;99.90
5689;DHT22;2869;50.432;8.680;2022-09-09T05:25:41;16.10;99.90
5689;DHT22;2869;50.432;8.680;2022-09-09T05:28:09;16.10;99.90
5689;DHT22;2869;50.432;8.680;2022-09-09T05:30:37;16.10;99.90
5689;DHT22;2869;50.432;8.680;2022-09-09T05:33:03;16.10;99.90
5689;DHT22;2869;50.432;8.680;2022-09-09T05:35:32;16.20;99.90
5689;DHT22;2869;50.432;8.680;2022-09-09T05:37:59;16.20;99.90
5689;DHT22;2869;50.432;8.680;2022-09-09T05:40:27;16.20;99.90
5689;DHT22;2869;50.432;8.680;2022-09-09T05:42:53;16.20;99.90
5689;DHT22;2869;50.432;8.680;2022-09-09T05:45:20;16.20;99.90
5689;DHT22;2869;50.432;8.680;2022-09-09T05:47:51;16.30;99.90
5689;DHT22;2869;50.432;8.680;2022-09-09T05:50:19;16.30;99.90
5689;DHT22;2869;50.432;8.680;2022-09-09T05:52:47;16.30;99.90
5689;DHT22;2869;50.432;8.680;2022-09-09T05:55:15;16.30;99.90
5689;DHT22;2869;50.432;8.680;2022-09-09T05:57:41;16.30;99.90
5689;DHT22;2869;50.432;8.680;2022-09-09T06:00:09;16.30;99.90
5689;DHT22;2869;50.432;8.680;2022-09-09T06:02:37;16.30;99.90
5689;DHT22;2869;50.432;8.680;2022-09-09T06:05:05;16.30;99.90
5689;DHT22;2869;50.432;8.680;2022-09-09T06:07:31;16.30;99.90
5689;DHT22;2869;50.432;8.680;2022-09-09T06:09:59;16.30;99.90
5689;DHT22;2869;50.432;8.680;2022-09-09T06:12:26;16.30;99.90
5689;DHT22;2869;50.432;8.680;2022-09-09T06:14:52;16.30;99.90
5689;DHT22;2869;50.432;8.680;2022-09-09T06:17:19;16.40;99.90
5689;DHT22;2869;50.432;8.680;2022-09-09T06:19:46;16.40;99.90
5689;DHT22;2869;50.432;8.680;2022-09-09T06:22:12;16.40;99.90
5689;DHT22;2869;50.432;8.680;2022-09-09T06:24:39;16.50;99.90
5689;DHT22;2869;50.432;8.680;2022-09-09T06:27:07;16.50;99.90
5689;DHT22;2869;50.432;8.680;2022-09-09T06:29:34;16.50;99.90
5689;DHT22;2869;50.432;8.680;2022-09-09T06:32:01;16.60;99.90
5689;DHT22;2869;50.432;8.680;2022-09-09T06:34:27;16.70;99.90
5689;DHT22;2869;50.432;8.680;2022-09-09T06:36:54;16.70;99.90
5689;DHT22;2869;50.432;8.680;2022-09-09T06:39:23;16.70;99.90
5689;DHT22;2869;50.432;8.680;2022-09-09T06:41:49;16.80;99.90
5689;DHT22;2869;50.432;8.680;2022-09-09T06:44:19;16.80;99.90
5689;DHT22;2869;50.432;8.680;2022-09-09T06:46:47;16.90;99.90
5689;DHT22;2869;50.432;8.680;2022-09-09T06:49:14;17.40;99.90
5689;DHT22;2869;50.432;8.680;2022-09-09T06:51:40;17.90;99.90
5689;DHT22;2869;50.432;8.680;2022-09-09T06:54:08;18.40;99.90
5689;DHT22;2869;50.432;8.680;2022-09-09T06:56:37;18.80;99.90
5689;DHT22;2869;50.432;8.680;2022-09-09T06:59:07;18.90;99.90
5689;DHT22;2869;50.432;8.680;2022-09-09T07:01:37;19.20;99.90
5689;DHT22;2869;50.432;8.680;2022-09-09T07:04:06;19.30;99.90
5689;DHT22;2869;50.432;8.680;2022-09-09T07:06:35;19.10;99.90
5689;DHT22;2869;50.432;8.680;2022-09-09T07:09:04;18.90;99.90
5689;DHT22;2869;50.432;8.680;2022-09-09T07:11:33;18.70;99.90
5689;DHT22;2869;50.432;8.680;2022-09-09T07:14:00;18.60;99.90
5689;DHT22;2869;50.432;8.680;2022-09-09T07:16:27;18.50;99.90
5689;DHT22;2869;50.432;8.680;2022-09-09T07:18:56;18.30;99.90
5689;DHT22;2869;50.432;8.680;2022-09-09T07:21:24;18.30;99.90
5689;DHT22;2869;50.432;8.680;2022-09-09T07:23:52;18.30;99.90
5689;DHT22;2869;50.432;8.680;2022-09-09T07:26:20;18.30;99.90
5689;DHT22;2869;50.432;8.680;2022-09-09T07:28:48;18.30;99.90
5689;DHT22;2869;50.432;8.680;2022-09-09T07:31:16;18.20;99.90
5689;DHT22;2869;50.432;8.680;2022-09-09T07:33:45;18.10;99.90
5689;DHT22;2869;50.432;8.680;2022-09-09T07:36:15;18.10;99.90
5689;DHT22;2869;50.432;8.680;2022-09-09T07:38:44;18.10;99.90
5689;DHT22;2869;50.432;8.680;2022-09-09T07:41:13;18.10;99.90
5689;DHT22;2869;50.432;8.680;2022-09-09T07:43:40;18.00;99.90
5689;DHT22;2869;50.432;8.680;2022-09-09T07:46:08;17.90;99.90
5689;DHT22;2869;50.432;8.680;2022-09-09T07:48:35;17.90;99.90
5689;DHT22;2869;50.432;8.680;2022-09-09T07:51:07;17.90;99.90
5689;DHT22;2869;50.432;8.680;2022-09-09T07:53:35;18.00;99.90
5689;DHT22;2869;50.432;8.680;2022-09-09T07:56:05;18.10;99.90
5689;DHT22;2869;50.432;8.680;2022-09-09T07:58:32;18.00;99.90
5689;DHT22;2869;50.432;8.680;2022-09-09T08:00:59;18.00;99.90
5689;DHT22;2869;50.432;8.680;2022-09-09T08:03:26;17.90;99.90
5689;DHT22;2869;50.432;8.680;2022-09-09T08:05:52;18.00;99.90
5689;DHT22;2869;50.432;8.680;2022-09-09T08:08:19;18.00;99.90
5689;DHT22;2869;50.432;8.680;2022-09-09T08:10:47;18.00;99.90
5689;DHT22;2869;50.432;8.680;2022-09-09T08:13:14;18.10;99.90
5689;DHT22;2869;50.432;8.680;2022-09-09T08:15:40;18.20;99.90
5689;DHT22;2869;50.432;8.680;2022-09-09T08:18:08;18.20;99.90
5689;DHT22;2869;50.432;8.680;2022-09-09T08:20:36;18.50;99.90
5689;DHT22;2869;50.432;8.680;2022-09-09T08:23:03;18.70;99.90
5689;DHT22;2869;50.432;8.680;2022-09-09T08:25:31;18.80;99.90
5689;DHT22;2869;50.432;8.680;2022-09-09T08:28:00;18.70;99.90
5689;DHT22;2869;50.432;8.680;2022-09-09T08:30:27;18.70;99.90
5689;DHT22;2869;50.432;8.680;2022-09-09T08:32:53;18.80;99.90
5689;DHT22;2869;50.432;8.680;2022-09-09T08:35:20;18.80;99.90
5689;DHT22;2869;50.432;8.680;2022-09-09T08:37:46;19.00;99.90
5689;DHT22;2869;50.432;8.680;2022-09-09T08:40:20;19.50;99.90
5689;DHT22;2869;50.432;8.680;2022-09-09T08:42:50;20.00;99.90
5689;DHT22;2869;50.432;8.680;2022-09-09T08:45:28;19.80;99.90
5689;DHT22;2869;50.432;8.680;2022-09-09T08:48:14;19.90;99.90
5689;DHT22;2869;50.432;8.680;2022-09-09T08:50:44;19.80;99.90
5689;DHT22;2869;50.432;8.680;2022-09-09T08:53:17;19.80;99.90
5689;DHT22;2869;50.432;8.680;2022-09-09T08:55:47;20.10;99.90
5689;DHT22;2869;50.432;8.680;2022-09-09T08:58:16;20.20;99.90
5689;DHT22;2869;50.432;8.680;2022-09-09T09:00:57;20.40;99.90
5689;DHT22;2869;50.432;8.680;2022-09-09T09:03:31;20.40;99.90
5689;DHT22;2869;50.432;8.680;2022-09-09T09:06:06;20.20;99.90
5689;DHT22;2869;50.432;8.680;2022-09-09T09:08:39;20.10;99.90
5689;DHT22;2869;50.432;8.680;2022-09-09T09:11:10;19.90;99.90
5689;DHT22;2869;50.432;8.680;2022-09-09T09:13:41;19.80;99.90
5689;DHT22;2869;50.432;8.680;2022-09-09T09:16:19;19.80;99.90
5689;DHT22;2869;50.432;8.680;2022-09-09T09:18:48;19.70;99.90
5689;DHT22;2869;50.432;8.680;2022-09-09T09:21:19;19.60;99.90
5689;DHT22;2869;50.432;8.680;2022-09-09T09:23:55;19.50;99.90
5689;DHT22;2869;50.432;8.680;2022-09-09T09:26:24;19.40;99.90
5689;DHT22;2869;50.432;8.680;2022-09-09T09:28:54;19.30;99.90
5689;DHT22;2869;50.432;8.680;2022-09-09T09:31:23;19.40;99.90
5689;DHT22;2869;50.432;8.680;2022-09-09T09:33:54;19.30;99.90
5689;DHT22;2869;50.432;8.680;2022-09-09T09:36:24;19.20;99.90
5689;DHT22;2869;50.432;8.680;2022-09-09T09:38:54;19.10;99.90
5689;DHT22;2869;50.432;8.680;2022-09-09T09:41:32;19.00;99.90
5689;DHT22;2869;50.432;8.680;2022-09-09T09:44:00;19.10;99.90
5689;DHT22;2869;50.432;8.680;2022-09-09T09:46:29;19.10;99.90
5689;DHT22;2869;50.432;8.680;2022-09-09T09:48:59;19.10;99.90
5689;DHT22;2869;50.432;8.680;2022-09-09T09:51:28;19.20;99.90
5689;DHT22;2869;50.432;8.680;2022-09-09T09:54:06;19.50;99.90
5689;DHT22;2869;50.432;8.680;2022-09-09T09:56:35;19.90;99.90
5689;DHT22;2869;50.432;8.680;2022-09-09T09:59:02;20.20;99.90
5689;DHT22;2869;50.432;8.680;2022-09-09T10:01:31;20.40;99.90
5689;DHT22;2869;50.432;8.680;2022-09-09T10:04:00;20.50;99.90
5689;DHT22;2869;50.432;8.680;2022-09-09T10:06:32;20.80;99.90
5689;DHT22;2869;50.432;8.680;2022-09-09T10:08:59;21.00;99.90
5689;DHT22;2869;50.432;8.680;2022-09-09T10:11:38;21.30;99.90
5689;DHT22;2869;50.432;8.680;2022-09-09T10:14:14;21.30;99.90
5689;DHT22;2869;50.432;8.680;2022-09-09T10:20:21;21.70;99.90
5689;DHT22;2869;50.432;8.680;2022-09-09T10:22:52;21.80;99.90
5689;DHT22;2869;50.432;8.680;2022-09-09T10:25:34;22.00;99.90
5689;DHT22;2869;50.432;8.680;2022-09-09T10:28:22;22.40;99.90
5689;DHT22;2869;50.432;8.680;2022-09-09T10:30:58;22.70;99.90
5689;DHT22;2869;50.432;8.680;2022-09-09T10:33:35;22.70;99.90
5689;DHT22;2869;50.432;8.680;2022-09-09T10:36:09;22.50;99.90
5689;DHT22;2869;50.432;8.680;2022-09-09T10:38:40;22.50;99.90
5689;DHT22;2869;50.432;8.680;2022-09-09T10:41:33;22.70;99.90
5689;DHT22;2869;50.432;8.680;2022-09-09T10:44:15;23.10;99.90
5689;DHT22;2869;50.432;8.680;2022-09-09T10:46:58;23.10;99.90
5689;DHT22;2869;50.432;8.680;2022-09-09T10:49:42;22.80;99.90
5689;DHT22;2869;50.432;8.680;2022-09-09T10:52:19;22.40;99.90
5689;DHT22;2869;50.432;8.680;2022-09-09T10:54:55;21.90;99.90
5689;DHT22;2869;50.432;8.680;2022-09-09T10:57:28;21.60;99.90
5689;DHT22;2869;50.432;8.680;2022-09-09T10:59:59;21.30;99.90
5689;DHT22;2869;50.432;8.680;2022-09-09T11:02:31;21.00;99.90
5689;DHT22;2869;50.432;8.680;2022-09-09T11:05:02;20.80;99.90
5689;DHT22;2869;50.432;8.680;2022-09-09T11:07:35;20.70;99.90
5689;DHT22;2869;50.432;8.680;2022-09-09T11:10:11;20.40;99.90
5689;DHT22;2869;50.432;8.680;2022-09-09T11:12:43;20.10;99.90
5689;DHT22;2869;50.432;8.680;2022-09-09T11:15:17;20.10;99.90
5689;DHT22;2869;50.432;8.680;2022-09-09T11:17:49;20.00;99.90
5689;DHT22;2869;50.432;8.680;2022-09-09T11:20:16;19.90;99.90
5689;DHT22;2869;50.432;8.680;2022-09-09T11:22:47;19.80;99.90
5689;DHT22;2869;50.432;8.680;2022-09-09T11:25:17;20.00;99.90
5689;DHT22;2869;50.432;8.680;2022-09-09T11:27:57;20.30;99.90
5689;DHT22;2869;50.432;8.680;2022-09-09T11:30:33;20.90;99.90
5689;DHT22;2869;50.432;8.680;2022-09-09T11:33:20;21.30;99.90
5689;DHT22;2869;50.432;8.680;2022-09-09T11:36:06;21.30;99.90
5689;DHT22;2869;50.432;8.680;2022-09-09T11:38:44;20.70;99.90
5689;DHT22;2869;50.432;8.680;2022-09-09T11:41:12;20.40;99.90
5689;DHT22;2869;50.432;8.680;2022-09-09T11:43:42;20.10;99.90
5689;DHT22;2869;50.432;8.680;2022-09-09T11:46:09;19.90;99.90
5689;DHT22;2869;50.432;8.680;2022-09-09T11:48:38;19.70;99.90
5689;DHT22;2869;50.432;8.680;2022-09-09T11:51:09;19.70;99.90
5689;DHT22;2869;50.432;8.680;2022-09-09T11:53:49;19.60;99.90
5689;DHT22;2869;50.432;8.680;2022-09-09T11:56:25;19.60;99.90
5689;DHT22;2869;50.432;8.680;2022-09-09T11:58:58;19.90;99.90
5689;DHT22;2869;50.432;8.680;2022-09-09T12:01:37;20.20;99.90
5689;DHT22;2869;50.432;8.680;2022-09-09T12:04:32;20.40;99.90
5689;DHT22;2869;50.432;8.680;2022-09-09T12:07:01;20.40;99.90
5689;DHT22;2869;50.432;8.680;2022-09-09T12:09:40;20.40;99.90
5689;DHT22;2869;50.432;8.680;2022-09-09T12:12:26;20.30;99.90
5689;DHT22;2869;50.432;8.680;2022-09-09T12:14:59;20.30;99.90
5689;DHT22;2869;50.432;8.680;2022-09-09T12:17:27;20.30;99.90
5689;DHT22;2869;50.432;8.680;2022-09-09T12:20:08;20.30;99.90
5689;DHT22;2869;50.432;8.680;2022-09-09T12:22:51;20.50;99.90
5689;DHT22;2869;50.432;8.680;2022-09-09T12:25:32;20.30;99.90
5689;DHT22;2869;50.432;8.680;2022-09-09T12:28:05;20.30;99.90
5689;DHT22;2869;50.432;8.680;2022-09-09T12:30:41;20.30;99.90
5689;DHT22;2869;50.432;8.680;2022-09-09T12:33:16;20.30;99.90
5689;DHT22;2869;50.432;8.680;2022-09-09T12:35:45;20.40;99.90
5689;DHT22;2869;50.432;8.680;2022-09-09T12:38:15;20.60;99.90
5689;DHT22;2869;50.432;8.680;2022-09-09T12:40:54;20.70;99.90
5689;DHT22;2869;50.432;8.680;2022-09-09T12:43:22;20.80;99.90
5689;DHT22;2869;50.432;8.680;2022-09-09T12:45:50;20.70;99.90
5689;DHT22;2869;50.432;8.680;2022-09-09T12:48:27;20.80;99.90
5689;DHT22;2869;50.432;8.680;2022-09-09T12:50:55;21.10;99.90
5689;DHT22;2869;50.432;8.680;2022-09-09T12:53:24;21.70;99.90
5689;DHT22;2869;50.432;8.680;2022-09-09T12:55:56;22.00;99.90
5689;DHT22;2869;50.432;8.680;2022-09-09T12:58:23;21.70;99.90
5689;DHT22;2869;50.432;8.680;2022-09-09T13:00:52;21.50;99.90
5689;DHT22;2869;50.432;8.680;2022-09-09T13:03:22;21.30;99.90
5689;DHT22;2869;50.432;8.680;2022-09-09T13:05:50;21.10;99.90
5689;DHT22;2869;50.432;8.680;2022-09-09T13:08:17;20.90;99.90
5689;DHT22;2869;50.432;8.680;2022-09-09T13:10:48;21.20;99.90
5689;DHT22;2869;50.432;8.680;2022-09-09T13:13:21;21.80;99.90
5689;DHT22;2869;50.432;8.680;2022-09-09T13:15:50;22.30;99.90
5689;DHT22;2869;50.432;8.680;2022-09-09T13:18:20;22.50;99.90
5689;DHT22;2869;50.432;8.680;2022-09-09T13:20:48;22.40;99.90
5689;DHT22;2869;50.432;8.680;2022-09-09T13:23:15;22.10;99.90
5689;DHT22;2869;50.432;8.680;2022-09-09T13:25:53;22.10;99.90
5689;DHT22;2869;50.432;8.680;2022-09-09T13:28:23;22.10;99.90
5689;DHT22;2869;50.432;8.680;2022-09-09T13:30:57;22.30;99.90
5689;DHT22;2869;50.432;8.680;2022-09-09T13:33:32;22.70;99.90
5689;DHT22;2869;50.432;8.680;2022-09-09T13:36:01;23.10;99.90
5689;DHT22;2869;50.432;8.680;2022-09-09T13:38:31;23.50;99.90
5689;DHT22;2869;50.432;8.680;2022-09-09T13:41:00;23.80;99.90
5689;DHT22;2869;50.432;8.680;2022-09-09T13:43:33;23.40;99.90
5689;DHT22;2869;50.432;8.680;2022-09-09T13:46:23;22.90;99.90
5689;DHT22;2869;50.432;8.680;2022-09-09T13:48:55;22.40;99.90
5689;DHT22;2869;50.432;8.680;2022-09-09T13:51:30;22.20;99.90
5689;DHT22;2869;50.432;8.680;2022-09-09T13:53:58;22.30;99.90
5689;DHT22;2869;50.432;8.680;2022-09-09T13:56:25;22.30;99.90
5689;DHT22;2869;50.432;8.680;2022-09-09T13:58:52;22.20;99.90
5689;DHT22;2869;50.432;8.680;2022-09-09T14:01:19;21.90;99.90
5689;DHT22;2869;50.432;8.680;2022-09-09T14:03:45;21.80;99.90
5689;DHT22;2869;50.432;8.680;2022-09-09T14:06:13;22.00;99.90
5689;DHT22;2869;50.432;8.680;2022-09-09T14:08:40;22.10;99.90
5689;DHT22;2869;50.432;8.680;2022-09-09T14:11:11;22.40;99.90
5689;DHT22;2869;50.432;8.680;2022-09-09T14:13:40;22.40;99.90
5689;DHT22;2869;50.432;8.680;2022-09-09T14:16:06;22.40;99.90
5689;DHT22;2869;50.432;8.680;2022-09-09T14:18:33;22.50;99.90
5689;DHT22;2869;50.432;8.680;2022-09-09T14:21:00;22.60;99.90
5689;DHT22;2869;50.432;8.680;2022-09-09T14:23:29;22.30;99.90
5689;DHT22;2869;50.432;8.680;2022-09-09T14:25:55;22.10;99.90
5689;DHT22;2869;50.432;8.680;2022-09-09T14:28:22;21.80;99.90
5689;DHT22;2869;50.432;8.680;2022-09-09T14:30:49;21.50;99.90
5689;DHT22;2869;50.432;8.680;2022-09-09T14:33:16;21.40;99.90
5689;DHT22;2869;50.432;8.680;2022-09-09T14:35:42;21.30;99.90
5689;DHT22;2869;50.432;8.680;2022-09-09T14:38:09;21.00;99.90
5689;DHT22;2869;50.432;8.680;2022-09-09T14:40:38;21.10;99.90
5689;DHT22;2869;50.432;8.680;2022-09-09T14:43:05;21.00;99.90
5689;DHT22;2869;50.432;8.680;2022-09-09T14:45:32;20.90;99.90
5689;DHT22;2869;50.432;8.680;2022-09-09T14:47:59;20.80;99.90
5689;DHT22;2869;50.432;8.680;2022-09-09T14:50:25;20.70;99.90
5689;DHT22;2869;50.432;8.680;2022-09-09T14:52:52;20.50;99.90
5689;DHT22;2869;50.432;8.680;2022-09-09T14:55:19;20.30;99.90
5689;DHT22;2869;50.432;8.680;2022-09-09T14:57:47;20.40;99.90
5689;DHT22;2869;50.432;8.680;2022-09-09T15:00:15;20.40;99.90
5689;DHT22;2869;50.432;8.680;2022-09-09T15:02:42;20.40;99.90
5689;DHT22;2869;50.432;8.680;2022-09-09T15:05:09;20.40;99.90
5689;DHT22;2869;50.432;8.680;2022-09-09T15:07:36;20.30;99.90
5689;DHT22;2869;50.432;8.680;2022-09-09T15:10:04;20.30;99.90
5689;DHT22;2869;50.432;8.680;2022-09-09T15:12:31;20.30;99.90
5689;DHT22;2869;50.432;8.680;2022-09-09T15:14:59;20.20;99.90
5689;DHT22;2869;50.432;8.680;2022-09-09T15:17:26;20.20;99.90
5689;DHT22;2869;50.432;8.680;2022-09-09T15:19:53;20.10;99.90
5689;DHT22;2869;50.432;8.680;2022-09-09T15:22:20;20.00;99.90
5689;DHT22;2869;50.432;8.680;2022-09-09T15:24:47;19.90;99.90
5689;DHT22;2869;50.432;8.680;2022-09-09T15:27:13;20.10;99.90
5689;DHT22;2869;50.432;8.680;2022-09-09T15:29:40;20.40;99.90
5689;DHT22;2869;50.432;8.680;2022-09-09T15:32:08;20.60;99.90
5689;DHT22;2869;50.432;8.680;2022-09-09T15:34:35;20.70;99.90
5689;DHT22;2869;50.432;8.680;2022-09-09T15:37:01;20.70;99.90
5689;DHT22;2869;50.432;8.680;2022-09-09T15:39:28;20.80;99.90
5689;DHT22;2869;50.432;8.680;2022-09-09T15:41:55;21.00;99.90
5689;DHT22;2869;50.432;8.680;2022-09-09T15:44:21;21.10;99.90
5689;DHT22;2869;50.432;8.680;2022-09-09T15:46:51;21.00;99.90
5689;DHT22;2869;50.432;8.680;2022-09-09T15:49:21;20.90;99.90
5689;DHT22;2869;50.432;8.680;2022-09-09T15:51:51;20.70;99.90
5689;DHT22;2869;50.432;8.680;2022-09-09T15:54:19;20.50;99.90
5689;DHT22;2869;50.432;8.680;2022-09-09T15:56:51;20.30;99.90
5689;DHT22;2869;50.432;8.680;2022-09-09T15:59:17;20.00;99.90
5689;DHT22;2869;50.432;8.680;2022-09-09T16:01:44;19.80;99.90
5689;DHT22;2869;50.432;8.680;2022-09-09T16:04:11;19.70;99.90
5689;DHT22;2869;50.432;8.680;2022-09-09T16:06:39;19.50;99.90
5689;DHT22;2869;50.432;8.680;2022-09-09T16:09:06;19.40;99.90
5689;DHT22;2869;50.432;8.680;2022-09-09T16:11:35;19.30;99.90
5689;DHT22;2869;50.432;8.680;2022-09-09T16:14:03;19.10;99.90
5689;DHT22;2869;50.432;8.680;2022-09-09T16:16:31;19.10;99.90
5689;DHT22;2869;50.432;8.680;2022-09-09T16:18:59;19.10;99.90
5689;DHT22;2869;50.432;8.680;2022-09-09T16:21:27;19.00;99.90
5689;DHT22;2869;50.432;8.680;2022-09-09T16:23:58;19.00;99.90
5689;DHT22;2869;50.432;8.680;2022-09-09T16:26:26;18.80;99.90